sensor_id;sensor_type;location;lat;lon;timestamp;temperature;humidity
43185;DHT22;28803;52.308;19.096;2022-12-29T00:00:20;4.90;99.90
43185;DHT22;28803;52.308;19.096;2022-12-29T00:03:07;4.90;99.90
43185;DHT22;28803;52.308;19.096;2022-12-29T00:05:34;5.00;99.90
43185;DHT22;28803;52.308;19.096;2022-12-29T00:08:02;5.00;99.90
43185;DHT22;28803;52.308;19.096;2022-12-29T00:10:29;5.00;99.90
43185;DHT22;28803;52.308;19.096;2022-12-29T00:12:57;5.00;99.90
43185;DHT22;28803;52.308;19.096;2022-12-29T00:15:42;5.00;99.90
43185;DHT22;28803;52.308;19.096;2022-12-29T00:18:10;5.00;99.90
43185;DHT22;28803;52.308;19.096;2022-12-29T00:20:38;5.00;99.90
43185;DHT22;28803;52.308;19.096;2022-12-29T00:23:24;5.00;99.90
43185;DHT22;28803;52.308;19.096;2022-12-29T00:26:13;4.90;99.90
43185;DHT22;28803;52.308;19.096;2022-12-29T00:29:00;5.00;99.90
43185;DHT22;28803;52.308;19.096;2022-12-29T00:31:46;5.00;99.90
43185;DHT22;28803;52.308;19.096;2022-12-29T00:34:31;4.90;99.90
43185;DHT22;28803;52.308;19.096;2022-12-29T00:37:17;4.90;99.90
43185;DHT22;28803;52.308;19.096;2022-12-29T00:40:05;4.90;99.90
43185;DHT22;28803;52.308;19.096;2022-12-29T00:42:51;4.90;99.90
43185;DHT22;28803;52.308;19.096;2022-12-29T00:45:36;4.90;99.90
43185;DHT22;28803;52.308;19.096;2022-12-29T00:48:06;4.80;99.90
43185;DHT22;28803;52.308;19.096;2022-12-29T00:50:33;4.60;99.90
43185;DHT22;28803;52.308;19.096;2022-12-29T00:53:00;4.50;99.90
43185;DHT22;28803;52.308;19.096;2022-12-29T00:55:28;4.40;99.90
43185;DHT22;28803;52.308;19.096;2022-12-29T00:57:55;4.40;99.90
43185;DHT22;28803;52.308;19.096;2022-12-29T01:00:22;4.30;99.90
43185;DHT22;28803;52.308;19.096;2022-12-29T01:02:49;4.30;99.90
43185;DHT22;28803;52.308;19.096;2022-12-29T01:05:17;4.20;99.90
43185;DHT22;28803;52.308;19.096;2022-12-29T01:07:44;4.20;99.90
43185;DHT22;28803;52.308;19.096;2022-12-29T01:10:11;4.10;99.90
43185;DHT22;28803;52.308;19.096;2022-12-29T01:12:38;4.10;99.90
43185;DHT22;28803;52.308;19.096;2022-12-29T01:15:11;4.10;99.90
43185;DHT22;28803;52.308;19.096;2022-12-29T01:17:38;4.10;99.90
43185;DHT22;28803;52.308;19.096;2022-12-29T01:20:06;4.00;99.90
43185;DHT22;28803;52.308;19.096;2022-12-29T01:22:33;4.00;99.90
43185;DHT22;28803;52.308;19.096;2022-12-29T01:25:01;4.00;99.90
43185;DHT22;28803;52.308;19.096;2022-12-29T01:27:28;4.00;99.90
43185;DHT22;28803;52.308;19.096;2022-12-29T01:29:55;4.00;99.90
43185;DHT22;28803;52.308;19.096;2022-12-29T01:32:23;4.00;99.90
43185;DHT22;28803;52.308;19.096;2022-12-29T01:34:50;4.00;99.90
43185;DHT22;28803;52.308;19.096;2022-12-29T01:37:17;4.00;99.90
43185;DHT22;28803;52.308;19.096;2022-12-29T01:39:45;4.00;99.90
43185;DHT22;28803;52.308;19.096;2022-12-29T01:42:17;4.00;99.90
43185;DHT22;28803;52.308;19.096;2022-12-29T01:49:46;4.00;99.90
43185;DHT22;28803;52.308;19.096;2022-12-29T01:52:14;4.00;99.90
43185;DHT22;28803;52.308;19.096;2022-12-29T01:54:50;4.00;99.90
43185;DHT22;28803;52.308;19.096;2022-12-29T01:57:24;4.00;99.90
43185;DHT22;28803;52.308;19.096;2022-12-29T01:59:59;4.00;99.90
43185;DHT22;28803;52.308;19.096;2022-12-29T02:02:27;4.00;99.90
43185;DHT22;28803;52.308;19.096;2022-12-29T02:05:11;4.10;99.90
43185;DHT22;28803;52.308;19.096;2022-12-29T02:07:41;4.10;99.90
43185;DHT22;28803;52.308;19.096;2022-12-29T02:10:09;4.10;99.90
43185;DHT22;28803;52.308;19.096;2022-12-29T02:12:36;4.10;99.90
43185;DHT22;28803;52.308;19.096;2022-12-29T02:15:04;4.10;99.90
43185;DHT22;28803;52.308;19.096;2022-12-29T02:17:53;4.20;99.90
43185;DHT22;28803;52.308;19.096;2022-12-29T02:32:05;4.20;99.90
43185;DHT22;28803;52.308;19.096;2022-12-29T02:40:20;4.20;99.90
43185;DHT22;28803;52.308;19.096;2022-12-29T02:42:56;4.30;99.90
43185;DHT22;28803;52.308;19.096;2022-12-29T02:50:47;4.30;99.90
43185;DHT22;28803;52.308;19.096;2022-12-29T02:53:17;4.30;99.90
43185;DHT22;28803;52.308;19.096;2022-12-29T02:56:05;4.30;99.90
43185;DHT22;28803;52.308;19.096;2022-12-29T02:58:33;4.40;99.90
43185;DHT22;28803;52.308;19.096;2022-12-29T03:04:38;4.30;99.90
43185;DHT22;28803;52.308;19.096;2022-12-29T03:10:00;4.40;99.90
43185;DHT22;28803;52.308;19.096;2022-12-29T03:15:53;4.40;99.90
43185;DHT22;28803;52.308;19.096;2022-12-29T03:21:08;4.40;99.90
43185;DHT22;28803;52.308;19.096;2022-12-29T03:23:38;4.50;99.90
43185;DHT22;28803;52.308;19.096;2022-12-29T03:26:09;4.50;99.90
43185;DHT22;28803;52.308;19.096;2022-12-29T03:28:46;4.60;99.90
43185;DHT22;28803;52.308;19.096;2022-12-29T03:31:15;4.60;99.90
43185;DHT22;28803;52.308;19.096;2022-12-29T03:33:43;4.60;99.90
43185;DHT22;28803;52.308;19.096;2022-12-29T03:36:19;4.60;99.90
43185;DHT22;28803;52.308;19.096;2022-12-29T03:38:59;4.70;99.90
43185;DHT22;28803;52.308;19.096;2022-12-29T03:41:31;4.70;99.90
43185;DHT22;28803;52.308;19.096;2022-12-29T03:43:58;4.80;99.90
43185;DHT22;28803;52.308;19.096;2022-12-29T03:46:26;4.80;99.90
43185;DHT22;28803;52.308;19.096;2022-12-29T03:48:53;4.90;99.90
43185;DHT22;28803;52.308;19.096;2022-12-29T03:51:20;4.90;99.90
43185;DHT22;28803;52.308;19.096;2022-12-29T03:53:47;4.90;99.90
43185;DHT22;28803;52.308;19.096;2022-12-29T03:56:15;5.00;99.90
43185;DHT22;28803;52.308;19.096;2022-12-29T03:58:42;5.00;99.90
43185;DHT22;28803;52.308;19.096;2022-12-29T04:01:09;5.00;99.90
43185;DHT22;28803;52.308;19.096;2022-12-29T04:03:36;5.00;99.90
43185;DHT22;28803;52.308;19.096;2022-12-29T04:06:04;5.00;99.90
43185;DHT22;28803;52.308;19.096;2022-12-29T04:08:31;5.10;99.90
43185;DHT22;28803;52.308;19.096;2022-12-29T04:10:59;5.10;99.90
43185;DHT22;28803;52.308;19.096;2022-12-29T04:13:26;5.10;99.90
43185;DHT22;28803;52.308;19.096;2022-12-29T04:15:53;5.10;99.90
43185;DHT22;28803;52.308;19.096;2022-12-29T04:18:21;5.10;99.90
43185;DHT22;28803;52.308;19.096;2022-12-29T04:20:48;5.00;99.90
43185;DHT22;28803;52.308;19.096;2022-12-29T04:23:29;5.10;99.90
43185;DHT22;28803;52.308;19.096;2022-12-29T04:25:57;5.10;99.90
43185;DHT22;28803;52.308;19.096;2022-12-29T04:28:24;5.20;99.90
43185;DHT22;28803;52.308;19.096;2022-12-29T04:30:52;5.20;99.90
43185;DHT22;28803;52.308;19.096;2022-12-29T04:33:20;5.20;99.90
43185;DHT22;28803;52.308;19.096;2022-12-29T04:35:48;5.20;99.90
43185;DHT22;28803;52.308;19.096;2022-12-29T04:38:16;5.20;99.90
43185;DHT22;28803;52.308;19.096;2022-12-29T04:40:44;5.20;99.90
43185;DHT22;28803;52.308;19.096;2022-12-29T04:43:12;5.20;99.90
43185;DHT22;28803;52.308;19.096;2022-12-29T04:45:44;5.20;99.90
43185;DHT22;28803;52.308;19.096;2022-12-29T04:48:11;5.20;99.90
43185;DHT22;28803;52.308;19.096;2022-12-29T04:50:40;5.20;99.90
43185;DHT22;28803;52.308;19.096;2022-12-29T04:53:07;5.20;99.90
43185;DHT22;28803;52.308;19.096;2022-12-29T04:55:35;5.20;99.90
43185;DHT22;28803;52.308;19.096;2022-12-29T04:58:02;5.20;99.90
43185;DHT22;28803;52.308;19.096;2022-12-29T05:00:29;5.20;99.90
43185;DHT22;28803;52.308;19.096;2022-12-29T05:02:57;5.20;99.90
43185;DHT22;28803;52.308;19.096;2022-12-29T05:05:24;5.10;99.90
43185;DHT22;28803;52.308;19.096;2022-12-29T05:07:51;5.10;99.90
43185;DHT22;28803;52.308;19.096;2022-12-29T05:10:19;5.10;99.90
43185;DHT22;28803;52.308;19.096;2022-12-29T05:12:46;5.00;99.90
43185;DHT22;28803;52.308;19.096;2022-12-29T05:15:14;4.90;99.90
43185;DHT22;28803;52.308;19.096;2022-12-29T05:18:18;4.90;99.90
43185;DHT22;28803;52.308;19.096;2022-12-29T05:20:46;4.90;99.90
43185;DHT22;28803;52.308;19.096;2022-12-29T05:23:14;4.90;99.90
43185;DHT22;28803;52.308;19.096;2022-12-29T05:25:44;4.90;99.90
43185;DHT22;28803;52.308;19.096;2022-12-29T05:28:13;4.90;99.90
43185;DHT22;28803;52.308;19.096;2022-12-29T05:30:40;5.00;99.90
43185;DHT22;28803;52.308;19.096;2022-12-29T05:33:07;5.00;99.90
43185;DHT22;28803;52.308;19.096;2022-12-29T05:35:38;5.00;99.90
43185;DHT22;28803;52.308;19.096;2022-12-29T05:38:05;5.00;99.90
43185;DHT22;28803;52.308;19.096;2022-12-29T05:40:33;5.00;99.90
43185;DHT22;28803;52.308;19.096;2022-12-29T05:43:00;5.00;99.90
43185;DHT22;28803;52.308;19.096;2022-12-29T05:45:28;5.00;99.90
43185;DHT22;28803;52.308;19.096;2022-12-29T05:47:55;5.00;99.90
43185;DHT22;28803;52.308;19.096;2022-12-29T05:50:22;5.00;99.90
43185;DHT22;28803;52.308;19.096;2022-12-29T05:52:49;5.00;99.90
43185;DHT22;28803;52.308;19.096;2022-12-29T05:55:18;5.00;99.90
43185;DHT22;28803;52.308;19.096;2022-12-29T05:57:45;5.10;99.90
43185;DHT22;28803;52.308;19.096;2022-12-29T06:00:13;5.10;99.90
43185;DHT22;28803;52.308;19.096;2022-12-29T06:02:41;5.20;99.90
43185;DHT22;28803;52.308;19.096;2022-12-29T06:05:09;5.20;99.90
43185;DHT22;28803;52.308;19.096;2022-12-29T06:07:36;5.30;99.90
43185;DHT22;28803;52.308;19.096;2022-12-29T06:10:04;5.30;99.90
43185;DHT22;28803;52.308;19.096;2022-12-29T06:12:31;5.30;99.90
43185;DHT22;28803;52.308;19.096;2022-12-29T06:14:59;5.30;99.90
43185;DHT22;28803;52.308;19.096;2022-12-29T06:17:26;5.30;99.90
43185;DHT22;28803;52.308;19.096;2022-12-29T06:19:53;5.30;99.90
43185;DHT22;28803;52.308;19.096;2022-12-29T06:22:20;5.30;99.90
43185;DHT22;28803;52.308;19.096;2022-12-29T06:24:48;5.30;99.90
43185;DHT22;28803;52.308;19.096;2022-12-29T06:27:15;5.30;99.90
43185;DHT22;28803;52.308;19.096;2022-12-29T06:29:43;5.30;99.90
43185;DHT22;28803;52.308;19.096;2022-12-29T06:32:11;5.30;99.90
43185;DHT22;28803;52.308;19.096;2022-12-29T06:34:38;5.30;99.90
43185;DHT22;28803;52.308;19.096;2022-12-29T06:37:05;5.20;99.90
43185;DHT22;28803;52.308;19.096;2022-12-29T06:39:33;5.20;99.90
43185;DHT22;28803;52.308;19.096;2022-12-29T06:42:00;5.20;99.90
43185;DHT22;28803;52.308;19.096;2022-12-29T06:44:27;5.10;99.90
43185;DHT22;28803;52.308;19.096;2022-12-29T06:46:54;5.10;99.90
43185;DHT22;28803;52.308;19.096;2022-12-29T06:49:23;5.10;99.90
43185;DHT22;28803;52.308;19.096;2022-12-29T06:51:50;5.10;99.90
43185;DHT22;28803;52.308;19.096;2022-12-29T06:54:17;5.20;99.90
43185;DHT22;28803;52.308;19.096;2022-12-29T06:56:44;5.20;99.90
43185;DHT22;28803;52.308;19.096;2022-12-29T06:59:12;5.20;99.90
43185;DHT22;28803;52.308;19.096;2022-12-29T07:01:39;5.20;99.90
43185;DHT22;28803;52.308;19.096;2022-12-29T07:04:06;5.30;99.90
43185;DHT22;28803;52.308;19.096;2022-12-29T07:06:33;5.30;99.90
43185;DHT22;28803;52.308;19.096;2022-12-29T07:09:01;5.30;99.90
43185;DHT22;28803;52.308;19.096;2022-12-29T07:11:28;5.30;99.90
43185;DHT22;28803;52.308;19.096;2022-12-29T07:13:56;5.30;99.90
43185;DHT22;28803;52.308;19.096;2022-12-29T07:16:31;5.40;99.90
43185;DHT22;28803;52.308;19.096;2022-12-29T07:18:58;5.40;99.90
43185;DHT22;28803;52.308;19.096;2022-12-29T07:21:26;5.40;99.90
43185;DHT22;28803;52.308;19.096;2022-12-29T07:23:54;5.50;99.90
43185;DHT22;28803;52.308;19.096;2022-12-29T07:26:22;5.50;99.90
43185;DHT22;28803;52.308;19.096;2022-12-29T07:28:49;5.50;99.90
43185;DHT22;28803;52.308;19.096;2022-12-29T07:31:21;5.40;99.90
43185;DHT22;28803;52.308;19.096;2022-12-29T07:33:49;5.50;99.90
43185;DHT22;28803;52.308;19.096;2022-12-29T07:36:17;5.50;99.90
43185;DHT22;28803;52.308;19.096;2022-12-29T07:38:44;5.60;99.90
43185;DHT22;28803;52.308;19.096;2022-12-29T07:41:11;5.60;99.90
43185;DHT22;28803;52.308;19.096;2022-12-29T07:43:39;5.70;99.90
43185;DHT22;28803;52.308;19.096;2022-12-29T07:46:06;5.70;99.90
43185;DHT22;28803;52.308;19.096;2022-12-29T07:48:33;5.80;99.90
43185;DHT22;28803;52.308;19.096;2022-12-29T07:51:03;5.80;99.90
43185;DHT22;28803;52.308;19.096;2022-12-29T07:53:30;5.90;99.90
43185;DHT22;28803;52.308;19.096;2022-12-29T07:55:58;5.90;99.90
43185;DHT22;28803;52.308;19.096;2022-12-29T07:58:25;6.10;99.90
43185;DHT22;28803;52.308;19.096;2022-12-29T08:00:54;6.00;99.90
43185;DHT22;28803;52.308;19.096;2022-12-29T08:03:22;6.10;99.90
43185;DHT22;28803;52.308;19.096;2022-12-29T08:05:49;6.10;99.90
43185;DHT22;28803;52.308;19.096;2022-12-29T08:08:16;6.10;99.90
43185;DHT22;28803;52.308;19.096;2022-12-29T08:10:44;6.10;99.90
43185;DHT22;28803;52.308;19.096;2022-12-29T08:13:11;6.20;99.90
43185;DHT22;28803;52.308;19.096;2022-12-29T08:15:39;6.20;99.90
43185;DHT22;28803;52.308;19.096;2022-12-29T08:18:06;6.20;99.90
43185;DHT22;28803;52.308;19.096;2022-12-29T08:20:34;6.30;99.90
43185;DHT22;28803;52.308;19.096;2022-12-29T08:23:01;6.30;99.90
43185;DHT22;28803;52.308;19.096;2022-12-29T08:25:28;6.30;99.90
43185;DHT22;28803;52.308;19.096;2022-12-29T08:27:55;6.40;99.90
43185;DHT22;28803;52.308;19.096;2022-12-29T08:30:23;6.40;99.90
43185;DHT22;28803;52.308;19.096;2022-12-29T08:32:51;6.40;99.90
43185;DHT22;28803;52.308;19.096;2022-12-29T08:35:18;6.50;99.90
43185;DHT22;28803;52.308;19.096;2022-12-29T08:37:45;6.50;99.90
43185;DHT22;28803;52.308;19.096;2022-12-29T08:40:15;6.50;99.90
43185;DHT22;28803;52.308;19.096;2022-12-29T08:42:42;6.50;99.90
43185;DHT22;28803;52.308;19.096;2022-12-29T08:45:09;6.50;99.90
43185;DHT22;28803;52.308;19.096;2022-12-29T08:47:38;6.60;99.90
43185;DHT22;28803;52.308;19.096;2022-12-29T08:50:06;6.70;99.90
43185;DHT22;28803;52.308;19.096;2022-12-29T08:52:33;6.70;99.90
43185;DHT22;28803;52.308;19.096;2022-12-29T08:55:00;6.80;99.90
43185;DHT22;28803;52.308;19.096;2022-12-29T08:57:27;6.90;99.90
43185;DHT22;28803;52.308;19.096;2022-12-29T08:59:55;6.90;99.90
43185;DHT22;28803;52.308;19.096;2022-12-29T09:02:22;6.90;99.90
43185;DHT22;28803;52.308;19.096;2022-12-29T09:04:51;7.00;99.90
43185;DHT22;28803;52.308;19.096;2022-12-29T09:07:18;7.10;99.90
43185;DHT22;28803;52.308;19.096;2022-12-29T09:09:46;7.10;99.90
43185;DHT22;28803;52.308;19.096;2022-12-29T09:12:13;7.30;99.90
43185;DHT22;28803;52.308;19.096;2022-12-29T09:14:40;7.50;99.90
43185;DHT22;28803;52.308;19.096;2022-12-29T09:17:10;7.50;99.90
43185;DHT22;28803;52.308;19.096;2022-12-29T09:19:56;7.50;99.90
43185;DHT22;28803;52.308;19.096;2022-12-29T09:22:23;7.50;99.90
43185;DHT22;28803;52.308;19.096;2022-12-29T09:24:50;7.50;99.90
43185;DHT22;28803;52.308;19.096;2022-12-29T09:27:17;7.50;99.90
43185;DHT22;28803;52.308;19.096;2022-12-29T09:29:45;7.50;99.90
43185;DHT22;28803;52.308;19.096;2022-12-29T09:32:12;7.50;99.90
43185;DHT22;28803;52.308;19.096;2022-12-29T09:34:44;7.50;99.90
43185;DHT22;28803;52.308;19.096;2022-12-29T09:37:12;7.50;99.90
43185;DHT22;28803;52.308;19.096;2022-12-29T09:39:39;7.40;99.90
43185;DHT22;28803;52.308;19.096;2022-12-29T09:45:00;7.50;99.90
43185;DHT22;28803;52.308;19.096;2022-12-29T09:47:31;7.50;99.90
43185;DHT22;28803;52.308;19.096;2022-12-29T09:52:53;7.50;99.90
43185;DHT22;28803;52.308;19.096;2022-12-29T09:55:26;7.60;99.90
43185;DHT22;28803;52.308;19.096;2022-12-29T09:58:05;7.60;99.90
43185;DHT22;28803;52.308;19.096;2022-12-29T10:03:24;7.70;99.90
43185;DHT22;28803;52.308;19.096;2022-12-29T10:06:11;7.70;99.90
43185;DHT22;28803;52.308;19.096;2022-12-29T10:09:06;7.60;99.90
43185;DHT22;28803;52.308;19.096;2022-12-29T10:25:32;7.50;99.90
43185;DHT22;28803;52.308;19.096;2022-12-29T10:28:05;7.40;99.90
43185;DHT22;28803;52.308;19.096;2022-12-29T10:30:34;7.50;99.90
43185;DHT22;28803;52.308;19.096;2022-12-29T10:33:06;7.50;99.90
43185;DHT22;28803;52.308;19.096;2022-12-29T10:35:36;7.50;99.90
43185;DHT22;28803;52.308;19.096;2022-12-29T10:38:26;7.40;99.90
43185;DHT22;28803;52.308;19.096;2022-12-29T10:41:02;7.50;99.90
43185;DHT22;28803;52.308;19.096;2022-12-29T10:43:54;7.50;99.90
43185;DHT22;28803;52.308;19.096;2022-12-29T10:46:25;7.50;99.90
43185;DHT22;28803;52.308;19.096;2022-12-29T10:48:54;7.50;99.90
43185;DHT22;28803;52.308;19.096;2022-12-29T10:51:38;7.50;99.90
43185;DHT22;28803;52.308;19.096;2022-12-29T10:56:43;7.60;99.90
43185;DHT22;28803;52.308;19.096;2022-12-29T10:59:16;7.50;99.90
43185;DHT22;28803;52.308;19.096;2022-12-29T11:07:22;7.60;99.90
43185;DHT22;28803;52.308;19.096;2022-12-29T11:09:54;7.70;99.90
43185;DHT22;28803;52.308;19.096;2022-12-29T11:12:29;7.70;99.90
43185;DHT22;28803;52.308;19.096;2022-12-29T11:15:13;7.80;99.90
43185;DHT22;28803;52.308;19.096;2022-12-29T11:17:49;7.90;99.90
43185;DHT22;28803;52.308;19.096;2022-12-29T11:20:35;8.00;99.90
43185;DHT22;28803;52.308;19.096;2022-12-29T11:23:25;8.10;99.90
43185;DHT22;28803;52.308;19.096;2022-12-29T11:28:34;8.20;99.90
43185;DHT22;28803;52.308;19.096;2022-12-29T11:31:03;8.20;99.90
43185;DHT22;28803;52.308;19.096;2022-12-29T11:33:33;8.30;99.90
43185;DHT22;28803;52.308;19.096;2022-12-29T11:36:04;8.30;99.90
43185;DHT22;28803;52.308;19.096;2022-12-29T11:38:36;8.40;99.90
43185;DHT22;28803;52.308;19.096;2022-12-29T11:41:05;8.30;99.90
43185;DHT22;28803;52.308;19.096;2022-12-29T11:43:36;8.40;99.90
43185;DHT22;28803;52.308;19.096;2022-12-29T11:46:05;8.40;99.90
43185;DHT22;28803;52.308;19.096;2022-12-29T11:48:40;8.50;99.90
43185;DHT22;28803;52.308;19.096;2022-12-29T11:51:09;8.50;99.90
43185;DHT22;28803;52.308;19.096;2022-12-29T11:53:47;8.50;99.90
43185;DHT22;28803;52.308;19.096;2022-12-29T11:56:32;8.50;99.90
43185;DHT22;28803;52.308;19.096;2022-12-29T11:59:36;8.40;99.90
43185;DHT22;28803;52.308;19.096;2022-12-29T12:05:16;8.30;99.90
43185;DHT22;28803;52.308;19.096;2022-12-29T12:07:49;8.30;99.90
43185;DHT22;28803;52.308;19.096;2022-12-29T12:10:31;8.30;99.90
43185;DHT22;28803;52.308;19.096;2022-12-29T12:18:32;8.50;99.90
43185;DHT22;28803;52.308;19.096;2022-12-29T12:21:28;8.50;99.90
43185;DHT22;28803;52.308;19.096;2022-12-29T12:26:48;8.70;99.90
43185;DHT22;28803;52.308;19.096;2022-12-29T12:29:32;8.70;99.90
43185;DHT22;28803;52.308;19.096;2022-12-29T12:32:23;8.70;99.90
43185;DHT22;28803;52.308;19.096;2022-12-29T12:34:52;8.80;99.90
43185;DHT22;28803;52.308;19.096;2022-12-29T12:47:42;8.70;99.90
43185;DHT22;28803;52.308;19.096;2022-12-29T12:53:39;8.50;99.90
43185;DHT22;28803;52.308;19.096;2022-12-29T13:10:51;8.30;99.90
43185;DHT22;28803;52.308;19.096;2022-12-29T13:13:49;8.20;99.90
43185;DHT22;28803;52.308;19.096;2022-12-29T13:22:01;8.00;99.90
43185;DHT22;28803;52.308;19.096;2022-12-29T13:24:40;8.00;99.90
43185;DHT22;28803;52.308;19.096;2022-12-29T13:27:44;7.90;99.90
43185;DHT22;28803;52.308;19.096;2022-12-29T13:30:18;7.90;99.90
43185;DHT22;28803;52.308;19.096;2022-12-29T13:33:17;7.80;99.90
43185;DHT22;28803;52.308;19.096;2022-12-29T13:38:43;7.60;99.90
43185;DHT22;28803;52.308;19.096;2022-12-29T13:41:31;7.50;99.90
43185;DHT22;28803;52.308;19.096;2022-12-29T13:44:04;7.50;99.90
43185;DHT22;28803;52.308;19.096;2022-12-29T13:46:40;7.40;99.90
43185;DHT22;28803;52.308;19.096;2022-12-29T13:49:19;7.30;99.90
43185;DHT22;28803;52.308;19.096;2022-12-29T13:52:12;7.30;99.90
43185;DHT22;28803;52.308;19.096;2022-12-29T13:54:57;7.30;99.90
43185;DHT22;28803;52.308;19.096;2022-12-29T14:00:22;7.20;99.90
43185;DHT22;28803;52.308;19.096;2022-12-29T14:06:22;7.00;99.90
43185;DHT22;28803;52.308;19.096;2022-12-29T14:09:05;7.00;99.90
43185;DHT22;28803;52.308;19.096;2022-12-29T14:11:38;7.00;99.90
43185;DHT22;28803;52.308;19.096;2022-12-29T14:14:19;7.10;99.90
43185;DHT22;28803;52.308;19.096;2022-12-29T14:16:48;7.00;99.90
43185;DHT22;28803;52.308;19.096;2022-12-29T14:19:45;7.00;99.90
43185;DHT22;28803;52.308;19.096;2022-12-29T14:22:23;6.90;99.90
43185;DHT22;28803;52.308;19.096;2022-12-29T14:24:59;6.90;99.90
43185;DHT22;28803;52.308;19.096;2022-12-29T14:30:00;6.80;99.90
43185;DHT22;28803;52.308;19.096;2022-12-29T14:34:57;6.80;99.90
43185;DHT22;28803;52.308;19.096;2022-12-29T14:42:48;6.80;99.90
43185;DHT22;28803;52.308;19.096;2022-12-29T14:47:48;6.70;99.90
43185;DHT22;28803;52.308;19.096;2022-12-29T14:50:23;6.70;99.90
43185;DHT22;28803;52.308;19.096;2022-12-29T14:55:54;6.70;99.90
43185;DHT22;28803;52.308;19.096;2022-12-29T15:01:35;6.80;99.90
43185;DHT22;28803;52.308;19.096;2022-12-29T15:04:34;6.80;99.90
43185;DHT22;28803;52.308;19.096;2022-12-29T15:07:03;6.80;99.90
43185;DHT22;28803;52.308;19.096;2022-12-29T15:09:36;6.80;99.90
43185;DHT22;28803;52.308;19.096;2022-12-29T15:12:30;6.80;99.90
43185;DHT22;28803;52.308;19.096;2022-12-29T15:15:00;6.80;99.90
43185;DHT22;28803;52.308;19.096;2022-12-29T15:17:31;6.90;99.90
43185;DHT22;28803;52.308;19.096;2022-12-29T15:20:14;6.90;99.90
43185;DHT22;28803;52.308;19.096;2022-12-29T15:22:45;6.80;99.90
43185;DHT22;28803;52.308;19.096;2022-12-29T15:25:16;6.90;99.90
43185;DHT22;28803;52.308;19.096;2022-12-29T15:28:02;6.80;99.90
43185;DHT22;28803;52.308;19.096;2022-12-29T15:30:29;6.80;99.90
43185;DHT22;28803;52.308;19.096;2022-12-29T15:32:56;6.80;99.90
43185;DHT22;28803;52.308;19.096;2022-12-29T15:35:36;6.80;99.90
43185;DHT22;28803;52.308;19.096;2022-12-29T15:38:19;6.80;99.90
43185;DHT22;28803;52.308;19.096;2022-12-29T15:41:19;6.80;99.90
43185;DHT22;28803;52.308;19.096;2022-12-29T15:46:25;6.80;99.90
43185;DHT22;28803;52.308;19.096;2022-12-29T15:48:53;6.90;99.90
43185;DHT22;28803;52.308;19.096;2022-12-29T15:51:28;6.90;99.90
43185;DHT22;28803;52.308;19.096;2022-12-29T15:53:57;6.90;99.90
43185;DHT22;28803;52.308;19.096;2022-12-29T15:56:28;6.90;99.90
43185;DHT22;28803;52.308;19.096;2022-12-29T15:58:56;6.80;99.90
43185;DHT22;28803;52.308;19.096;2022-12-29T16:01:31;6.80;99.90
43185;DHT22;28803;52.308;19.096;2022-12-29T16:04:01;6.80;99.90
43185;DHT22;28803;52.308;19.096;2022-12-29T16:06:43;6.80;99.90
43185;DHT22;28803;52.308;19.096;2022-12-29T16:09:28;6.70;99.90
43185;DHT22;28803;52.308;19.096;2022-12-29T16:12:00;6.70;99.90
43185;DHT22;28803;52.308;19.096;2022-12-29T16:14:32;6.70;99.90
43185;DHT22;28803;52.308;19.096;2022-12-29T16:17:02;6.70;99.90
43185;DHT22;28803;52.308;19.096;2022-12-29T16:19:34;6.70;99.90
43185;DHT22;28803;52.308;19.096;2022-12-29T16:22:03;6.70;99.90
43185;DHT22;28803;52.308;19.096;2022-12-29T16:24:39;6.70;99.90
43185;DHT22;28803;52.308;19.096;2022-12-29T16:27:17;6.70;99.90
43185;DHT22;28803;52.308;19.096;2022-12-29T16:29:49;6.60;99.90
43185;DHT22;28803;52.308;19.096;2022-12-29T16:32:29;6.60;99.90
43185;DHT22;28803;52.308;19.096;2022-12-29T16:35:11;6.60;99.90
43185;DHT22;28803;52.308;19.096;2022-12-29T16:37:39;6.60;99.90
43185;DHT22;28803;52.308;19.096;2022-12-29T16:42:49;6.60;99.90
43185;DHT22;28803;52.308;19.096;2022-12-29T16:50:20;6.60;99.90
43185;DHT22;28803;52.308;19.096;2022-12-29T16:52:54;6.70;99.90
43185;DHT22;28803;52.308;19.096;2022-12-29T16:55:22;6.80;99.90
43185;DHT22;28803;52.308;19.096;2022-12-29T16:57:50;6.80;99.90
43185;DHT22;28803;52.308;19.096;2022-12-29T17:00:23;6.90;99.90
43185;DHT22;28803;52.308;19.096;2022-12-29T17:02:54;6.90;99.90
43185;DHT22;28803;52.308;19.096;2022-12-29T17:05:22;7.00;99.90
43185;DHT22;28803;52.308;19.096;2022-12-29T17:07:49;7.00;99.90
43185;DHT22;28803;52.308;19.096;2022-12-29T17:10:18;7.00;99.90
43185;DHT22;28803;52.308;19.096;2022-12-29T17:12:47;7.10;99.90
43185;DHT22;28803;52.308;19.096;2022-12-29T17:15:24;7.10;99.90
43185;DHT22;28803;52.308;19.096;2022-12-29T17:17:54;7.10;99.90
43185;DHT22;28803;52.308;19.096;2022-12-29T17:20:25;7.10;99.90
43185;DHT22;28803;52.308;19.096;2022-12-29T17:22:53;7.10;99.90
43185;DHT22;28803;52.308;19.096;2022-12-29T17:28:01;7.10;99.90
43185;DHT22;28803;52.308;19.096;2022-12-29T17:30:32;7.00;99.90
43185;DHT22;28803;52.308;19.096;2022-12-29T17:33:06;7.00;99.90
43185;DHT22;28803;52.308;19.096;2022-12-29T17:35:36;7.00;99.90
43185;DHT22;28803;52.308;19.096;2022-12-29T17:38:19;6.90;99.90
43185;DHT22;28803;52.308;19.096;2022-12-29T17:40:47;6.90;99.90
43185;DHT22;28803;52.308;19.096;2022-12-29T17:43:15;6.80;99.90
43185;DHT22;28803;52.308;19.096;2022-12-29T17:45:43;6.80;99.90
43185;DHT22;28803;52.308;19.096;2022-12-29T17:48:16;6.80;99.90
43185;DHT22;28803;52.308;19.096;2022-12-29T17:50:47;6.70;99.90
43185;DHT22;28803;52.308;19.096;2022-12-29T17:53:22;6.70;99.90
43185;DHT22;28803;52.308;19.096;2022-12-29T17:55:50;6.60;99.90
43185;DHT22;28803;52.308;19.096;2022-12-29T17:58:21;6.60;99.90
43185;DHT22;28803;52.308;19.096;2022-12-29T18:00:52;6.60;99.90
43185;DHT22;28803;52.308;19.096;2022-12-29T18:03:33;6.60;99.90
43185;DHT22;28803;52.308;19.096;2022-12-29T18:06:03;6.60;99.90
43185;DHT22;28803;52.308;19.096;2022-12-29T18:08:34;6.50;99.90
43185;DHT22;28803;52.308;19.096;2022-12-29T18:11:01;6.50;99.90
43185;DHT22;28803;52.308;19.096;2022-12-29T18:13:31;6.50;99.90
43185;DHT22;28803;52.308;19.096;2022-12-29T18:16:12;6.40;99.90
43185;DHT22;28803;52.308;19.096;2022-12-29T18:18:40;6.40;99.90
43185;DHT22;28803;52.308;19.096;2022-12-29T18:21:17;6.40;99.90
43185;DHT22;28803;52.308;19.096;2022-12-29T18:23:45;6.40;99.90
43185;DHT22;28803;52.308;19.096;2022-12-29T18:26:24;6.40;99.90
43185;DHT22;28803;52.308;19.096;2022-12-29T18:28:56;6.40;99.90
43185;DHT22;28803;52.308;19.096;2022-12-29T18:31:28;6.30;99.90
43185;DHT22;28803;52.308;19.096;2022-12-29T18:33:57;6.30;99.90
43185;DHT22;28803;52.308;19.096;2022-12-29T18:36:26;6.30;99.90
43185;DHT22;28803;52.308;19.096;2022-12-29T18:38:53;6.30;99.90